Portada
METAR-TAF:

METAR-TAF

Aeroports :

Madrid-Getafe, Espanya

latitud: 40-18N, longitud: 003-43W, altitud: 620 m

Observació

L'informe es va fer fa 2 hores i 39 minuts, a les 18:00 UTC
Vent 6 kt del Oest/Sud-Oest, variant entre Sud/Sud-Oest i Oest/Nord-Oest
Temperatura 28°C
Humitat 32%
Pressió 1015 hPa
Visibilitat 10 km o més
Escasses núvols a una alçada de 4000 ft

METAR: LEGT 011800Z 25006KT 210V290 9999 FEW040 28/10 Q1015

Hora: 22:39 (20:39 UTC)

Pronòstic

L'informe es va fer fa 3 hores i 39 minuts, a les 17:00 UTC
Pronòstic vàlid del 01 a les 18 UTC al 02 a les 03 UTC
Vent 5 kt amb direcció variable
Visibilitat 10 km o més
sense núvols per sota de 1500 mi sense presència de cumulonimbus.
Probabilitat 30% :
Temporalment
l' 01 a les 18 UTC al 01 a les 19 UTC
Escasses núvols a una alçada de 4500 ft, Cumulus congestus.

TAF: LEGT 011700Z 0118/0203 VRB05KT CAVOK PROB30 TEMPO 0118/0119 FEW045TCU

Observacions i pronòstics meteorològics de més de 4000 aeroports (METAR i TAF).

Les estacions disponibles són els punts grocs i vermells al mapa.

Posi el ratolí al punt desitjat per veure el nom de l'estació.

Feu clic per veure les observacions i els pronòstics meteorològics.

Per canviar el mapa: feu clic els botons verds amb una creu de color negre per apropar; al botó verd amb un guió per allunyar la imatge; o en les fletxes verdes per a mapes adjacents.


METAR-TAF: